Time;durP1;ratioP1;P1;durP2;ratioP2;P2;SDS_P1;SDS_P2;PMS_P1;PMS_P2;Temp;Humidity;BMP_temperature;BMP_pressure;BME280_temperature;BME280_humidity;BME280_pressure;Samples;Min_cycle;Max_cycle;Signal;HPM_P1;HPM_P2
2021/10/15 00:09:47;;;;;;;20.30;14.10;;;;;;;8.32;77.01;98857.73;463418;1189;98347;-41
2021/10/15 00:19:54;;;;;;;23.50;14.80;;;;;;;8.24;77.16;98855.41;463229;1189;110766;-42
2021/10/15 00:30:02;;;;;;;21.30;13.00;;;;;;;8.20;77.13;98851.01;462941;1189;107388;-41
2021/10/15 00:40:10;;;;;;;17.50;13.80;;;;;;;8.24;77.26;98840.24;463312;1190;97934;-43
2021/10/15 00:50:18;;;;;;;17.80;12.20;;;;;;;8.30;77.35;98823.46;463040;1189;110878;-41
2021/10/15 01:00:25;;;;;;;18.20;11.40;;;;;;;8.37;77.47;98812.98;463242;1190;108574;-41
2021/10/15 01:10:33;;;;;;;23.20;13.90;;;;;;;8.37;77.51;98804.60;463236;1190;97690;-41
2021/10/15 01:20:41;;;;;;;20.40;14.50;;;;;;;8.27;77.65;98798.54;463206;1170;110787;-41
2021/10/15 01:30:49;;;;;;;16.00;12.50;;;;;;;8.22;77.67;98796.01;462520;1189;108477;-41
2021/10/15 01:40:57;;;;;;;16.00;11.80;;;;;;;8.28;77.79;98790.55;462571;1190;97288;-42
2021/10/15 01:51:05;;;;;;;17.90;12.20;;;;;;;8.34;77.90;98787.23;462617;1189;111268;-41
2021/10/15 02:01:12;;;;;;;18.60;11.30;;;;;;;8.39;78.00;98783.48;462223;1189;108559;-41
2021/10/15 02:11:19;;;;;;;19.30;14.60;;;;;;;8.28;78.20;98781.35;462377;1191;97742;-41
2021/10/15 02:21:27;;;;;;;17.20;12.70;;;;;;;8.19;78.35;98777.38;462431;1190;110812;-41
2021/10/15 02:31:35;;;;;;;19.40;13.00;;;;;;;8.17;78.48;98772.00;462205;1190;108553;-42
2021/10/15 02:41:43;;;;;;;16.50;11.40;;;;;;;8.22;78.42;98768.89;462763;1189;97388;-41
2021/10/15 02:51:50;;;;;;;15.20;10.40;;;;;;;8.29;78.53;98767.98;462445;1190;110837;-42
2021/10/15 03:01:56;;;;;;;16.10;11.10;;;;;;;8.39;78.63;98766.36;462469;1190;108447;-41
2021/10/15 03:12:05;;;;;;;15.40;8.80;;;;;;;8.41;78.71;98766.84;462409;1190;97238;-40
2021/10/15 03:22:12;;;;;;;18.70;12.20;;;;;;;8.43;78.94;98766.91;462354;1196;108467;-41
2021/10/15 03:32:21;;;;;;;18.50;12.50;;;;;;;8.35;79.01;98763.75;462683;1189;97665;-42
2021/10/15 03:42:28;;;;;;;17.30;12.50;;;;;;;8.31;78.95;98757.27;463314;1190;97696;-41
2021/10/15 03:52:35;;;;;;;16.60;11.70;;;;;;;8.36;79.09;98755.76;463082;1190;108435;-40
2021/10/15 04:02:45;;;;;;;18.90;13.10;;;;;;;8.43;79.13;98753.04;463048;1190;97654;-41
2021/10/15 04:12:52;;;;;;;17.00;12.60;;;;;;;8.45;79.26;98748.73;463159;1189;110771;-41
2021/10/15 04:23:00;;;;;;;17.70;12.00;;;;;;;8.50;79.18;98748.29;463035;1189;109091;-41
2021/10/15 04:33:07;;;;;;;22.30;14.30;;;;;;;8.50;79.30;98745.85;463019;1195;97684;-41
2021/10/15 04:43:15;;;;;;;25.50;16.00;;;;;;;8.44;79.43;98730.98;463305;1188;110256;-41
2021/10/15 04:53:23;;;;;;;20.20;14.20;;;;;;;8.39;79.57;98733.77;463286;1190;108467;-41
2021/10/15 05:03:30;;;;;;;18.70;13.30;;;;;;;8.44;79.47;98726.41;463208;1181;97677;-41
2021/10/15 05:13:38;;;;;;;21.50;13.90;;;;;;;8.52;79.56;98714.55;462957;1190;110940;-42
2021/10/15 05:23:45;;;;;;;23.30;13.90;;;;;;;8.58;79.60;98721.29;463048;1189;108432;-40
2021/10/15 05:33:53;;;;;;;28.80;17.30;;;;;;;8.56;79.82;98718.17;462490;1189;97771;-41
2021/10/15 05:44:00;;;;;;;19.70;13.00;;;;;;;8.62;80.02;98709.81;462972;1190;108935;-43
2021/10/15 06:14:40;;;;;;;20.50;13.20;;;;;;;8.79;80.13;98699.38;462614;1193;108697;-41
2021/10/15 06:24:49;;;;;;;19.40;13.70;;;;;;;8.94;80.06;98694.33;462953;1189;97702;-40
2021/10/15 06:34:55;;;;;;;19.90;14.30;;;;;;;9.17;80.02;98695.97;462528;1189;110864;-39
2021/10/15 06:45:03;;;;;;;22.10;14.40;;;;;;;9.43;79.93;98698.94;462688;1189;108361;-41
2021/10/15 06:55:11;;;;;;;22.90;14.30;;;;;;;9.68;79.87;98687.18;462592;1190;97705;-43
2021/10/15 07:05:18;;;;;;;15.60;12.50;;;;;;;9.75;79.49;98681.52;462857;1190;108991;-41
2021/10/15 07:15:26;;;;;;;16.90;12.50;;;;;;;9.97;79.61;98685.79;462642;1189;107307;-41
2021/10/15 07:25:33;;;;;;;17.70;12.20;;;;;;;10.68;79.44;98687.52;463283;1189;97264;-41
2021/10/15 07:35:40;;;;;;;16.90;12.20;;;;;;;10.99;78.67;98682.97;463221;1190;110823;-42
2021/10/15 07:45:48;;;;;;;18.20;13.00;;;;;;;11.12;78.51;98681.14;463293;1189;108248;-41
2021/10/15 07:55:56;;;;;;;14.90;10.50;;;;;;;11.61;78.12;98677.59;463220;1190;97698;-41
2021/10/15 08:06:03;;;;;;;13.70;10.80;;;;;;;11.80;77.58;98677.79;463214;1190;110620;-41
2021/10/15 08:16:11;;;;;;;15.90;12.10;;;;;;;12.12;77.33;98683.52;463203;1189;107509;-41
2021/10/15 08:26:18;;;;;;;27.80;18.90;;;;;;;12.51;77.05;98685.86;462998;1190;97664;-42
2021/10/15 08:36:26;;;;;;;17.10;13.00;;;;;;;12.61;75.97;98683.71;463111;1189;111075;-42
2021/10/15 08:46:33;;;;;;;17.00;10.70;;;;;;;12.32;75.74;98678.09;463144;1190;107686;-41
2021/10/15 08:56:42;;;;;;;14.00;11.30;;;;;;;12.12;75.52;98677.38;463068;1190;96389;-42
2021/10/15 09:06:50;;;;;;;15.50;12.30;;;;;;;12.02;75.53;98678.30;463391;1189;110018;-41
2021/10/15 09:16:56;;;;;;;16.40;12.80;;;;;;;11.95;75.32;98675.48;463191;1190;108975;-41
2021/10/15 09:27:04;;;;;;;17.30;11.50;;;;;;;11.87;75.24;98663.02;463210;1189;97739;-42
2021/10/15 09:47:17;;;;;;;15.50;11.40;;;;;;;12.56;74.67;98638.91;463396;1190;108139;-42
2021/10/15 10:07:37;;;;;;;14.50;11.50;;;;;;;12.92;73.70;98634.23;463280;1190;109352;-41
2021/10/15 10:17:47;;;;;;;12.30;9.40;;;;;;;12.99;73.20;98630.48;463217;1189;108553;-41
2021/10/15 10:27:57;;;;;;;12.60;11.00;;;;;;;13.09;72.61;98624.98;463265;1189;97713;-42
2021/10/15 10:49:12;;;;;;;18.60;12.20;;;;;;;13.45;72.08;98608.71;463192;1189;110546;-42
2021/10/15 10:59:29;;;;;;;19.90;13.10;;;;;;;13.32;71.72;98603.37;463313;1189;107071;-41
2021/10/15 11:19:46;;;;;;;17.20;12.00;;;;;;;13.61;71.88;98584.70;463212;1190;110779;-43
2021/10/15 11:29:57;;;;;;;14.70;11.10;;;;;;;13.52;71.50;98568.95;463336;1196;108546;-40
2021/10/15 11:40:15;;;;;;;14.70;10.80;;;;;;;13.21;71.18;98566.94;463424;1190;107536;-41
2021/10/15 11:50:32;;;;;;;16.60;13.40;;;;;;;12.93;71.30;98562.44;463147;1188;97774;-40
2021/10/15 12:11:01;;;;;;;13.60;12.10;;;;;;;12.77;70.75;98532.30;463345;1190;97668;-41
2021/10/15 12:21:15;;;;;;;17.00;13.20;;;;;;;12.80;70.71;98517.45;463396;1189;111023;-41
2021/10/15 12:31:29;;;;;;;16.20;12.20;;;;;;;12.74;70.83;98509.07;463325;1190;107850;-42
2021/10/15 12:41:40;;;;;;;13.50;10.90;;;;;;;12.93;70.81;98502.52;463414;1190;96368;-41
2021/10/15 12:51:50;;;;;;;15.40;11.80;;;;;;;13.10;70.45;98487.69;463064;1190;110722;-41
2021/10/15 13:02:05;;;;;;;15.80;11.60;;;;;;;13.28;70.24;98476.53;463224;1190;109051;-40
2021/10/15 13:12:11;;;;;;;18.00;12.70;;;;;;;13.44;69.90;98469.84;463391;1190;96353;-41
2021/10/15 13:22:19;;;;;;;17.40;11.40;;;;;;;13.18;69.56;98466.74;463197;1190;111405;-41
2021/10/15 13:32:27;;;;;;;18.60;10.60;;;;;;;13.13;69.60;98460.42;463096;1189;108591;-41
2021/10/15 13:53:01;;;;;;;14.20;10.50;;;;;;;12.99;69.58;98439.84;463258;1190;110798;-41
2021/10/15 14:13:17;;;;;;;10.60;9.00;;;;;;;12.75;69.45;98429.91;463119;1190;108646;-42
2021/10/15 14:23:24;;;;;;;13.40;10.60;;;;;;;12.70;69.51;98421.79;463248;1190;97669;-41
2021/10/15 14:33:30;;;;;;;25.00;11.20;;;;;;;12.72;69.76;98418.48;463081;1193;111115;-45
2021/10/15 14:43:36;;;;;;;14.10;10.30;;;;;;;12.54;69.65;98416.14;463088;1190;108535;-42
2021/10/15 14:53:44;;;;;;;19.00;10.70;;;;;;;12.22;69.74;98419.14;463334;1190;97658;-42
2021/10/15 15:03:51;;;;;;;25.00;14.00;;;;;;;12.09;70.16;98424.70;463278;1190;110959;-41
2021/10/15 15:13:58;;;;;;;18.80;13.10;;;;;;;11.97;70.48;98422.88;463051;1189;108618;-41
2021/10/15 15:24:05;;;;;;;23.80;14.50;;;;;;;11.74;70.77;98426.48;463234;1190;98340;-41
2021/10/15 15:34:13;;;;;;;20.80;12.70;;;;;;;11.53;71.14;98435.15;463313;1189;111517;-41
2021/10/15 15:44:23;;;;;;;16.10;12.20;;;;;;;11.51;71.50;98443.69;462857;1189;109070;-41
2021/10/15 15:54:34;;;;;;;20.10;14.20;;;;;;;11.45;71.76;98445.98;462544;1190;97686;-41
2021/10/15 16:04:42;;;;;;;25.80;16.50;;;;;;;11.37;71.96;98442.67;463094;1190;110995;-42
2021/10/15 16:14:50;;;;;;;18.30;13.80;;;;;;;11.29;72.06;98443.38;463024;1189;108629;-42
2021/10/15 16:35:05;;;;;;;22.00;14.10;;;;;;;11.29;72.44;98442.15;463132;1190;110787;-42
2021/10/15 16:45:13;;;;;;;23.10;14.70;;;;;;;11.23;72.62;98438.98;463376;1188;108683;-42
2021/10/15 16:55:20;;;;;;;19.70;13.80;;;;;;;11.15;72.60;98444.41;463025;1189;97266;-41
2021/10/15 17:05:31;;;;;;;17.60;11.20;;;;;;;11.07;72.74;98447.65;463096;1190;108588;-41
2021/10/15 17:15:38;;;;;;;24.90;14.20;;;;;;;11.01;72.88;98442.94;463309;1189;97910;-42
2021/10/15 17:25:46;;;;;;;24.90;14.90;;;;;;;10.80;73.00;98441.67;462908;1190;97658;-41
2021/10/15 17:35:53;;;;;;;24.70;15.00;;;;;;;10.70;73.15;98436.69;462355;1190;110923;-41
2021/10/15 17:46:02;;;;;;;18.70;13.90;;;;;;;10.64;73.39;98445.24;462432;1190;108323;-41
2021/10/15 17:56:10;;;;;;;20.90;15.10;;;;;;;10.61;73.51;98446.61;463132;1189;97294;-42
2021/10/15 18:06:16;;;;;;;27.20;16.30;;;;;;;10.46;73.67;98440.29;463123;1191;106917;-42
2021/10/15 18:16:22;;;;;;;27.10;17.60;;;;;;;10.35;73.91;98439.93;463157;1189;97774;-42
2021/10/15 18:36:37;;;;;;;26.70;16.40;;;;;;;10.36;74.19;98457.02;462899;1190;108383;-41
2021/10/15 18:46:45;;;;;;;21.80;15.90;;;;;;;10.34;74.34;98459.09;463114;1189;97679;-42
2021/10/15 18:56:57;;;;;;;26.50;15.80;;;;;;;10.30;74.57;98463.77;463110;1189;108876;-41
2021/10/15 19:07:04;;;;;;;27.80;18.70;;;;;;;10.19;74.77;98462.00;463049;1189;97964;-41
2021/10/15 19:27:15;;;;;;;23.70;17.00;;;;;;;9.87;75.47;98456.80;463194;1189;109733;-41
2021/10/15 19:37:23;;;;;;;27.40;17.20;;;;;;;9.89;75.71;98454.02;462903;1189;108537;-41
2021/10/15 19:47:30;;;;;;;22.80;14.60;;;;;;;9.98;75.92;98454.92;463027;1189;98379;-41
2021/10/15 19:57:38;;;;;;;25.30;15.50;;;;;;;10.07;76.05;98465.25;462972;1189;108601;-42
2021/10/15 20:17:53;;;;;;;23.10;16.00;;;;;;;9.86;76.45;98504.61;463203;1188;97790;-42
2021/10/15 20:28:01;;;;;;;31.10;19.40;;;;;;;9.73;76.66;98523.19;463016;1190;110626;-40
2021/10/15 20:38:08;;;;;;;7.40;5.80;;;;;;;9.52;77.71;98575.09;462953;1190;108854;-41
2021/10/15 20:48:17;;;;;;;7.00;4.30;;;;;;;9.23;77.58;98583.95;463177;1189;98202;-41
2021/10/15 20:58:25;;;;;;;11.10;4.60;;;;;;;9.02;77.78;98598.05;462899;1189;108560;-42
2021/10/15 21:08:30;;;;;;;5.30;2.30;;;;;;;8.87;77.96;98607.41;463116;1189;97659;-41
2021/10/15 21:18:38;;;;;;;4.40;1.80;;;;;;;8.74;78.13;98615.70;462824;1189;111193;-41
2021/10/15 21:28:45;;;;;;;4.10;2.10;;;;;;;8.61;78.47;98612.02;462909;1191;107452;-40
2021/10/15 21:38:52;;;;;;;3.00;1.90;;;;;;;8.65;78.54;98626.45;462483;1189;98443;-41
2021/10/15 21:48:59;;;;;;;3.40;2.50;;;;;;;8.63;78.60;98633.04;462706;1189;108462;-41
2021/10/15 21:59:07;;;;;;;3.30;2.00;;;;;;;8.61;78.95;98636.27;462658;1189;96702;-41
2021/10/15 22:09:14;;;;;;;6.80;2.70;;;;;;;8.49;79.06;98637.17;463101;1190;110377;-40
2021/10/15 22:19:22;;;;;;;6.50;3.20;;;;;;;8.39;79.45;98650.52;462187;1189;108489;-43
2021/10/15 22:29:30;;;;;;;4.60;3.00;;;;;;;8.34;79.80;98656.66;462812;1189;97665;-40
2021/10/15 22:39:37;;;;;;;7.70;3.40;;;;;;;8.25;79.89;98667.40;462694;1190;108476;-41
2021/10/15 22:49:45;;;;;;;6.40;3.50;;;;;;;8.09;79.72;98674.89;462863;1189;97208;-41
2021/10/15 22:59:52;;;;;;;5.80;3.60;;;;;;;7.89;79.74;98680.42;462665;1189;110916;-40
2021/10/15 23:10:00;;;;;;;6.90;3.10;;;;;;;7.67;79.81;98684.30;463215;1189;108593;-41
2021/10/15 23:20:10;;;;;;;5.60;4.00;;;;;;;7.48;80.16;98686.44;462527;1189;97800;-41
2021/10/15 23:30:17;;;;;;;4.70;2.50;;;;;;;7.33;80.20;98705.59;462503;1189;107455;-39
2021/10/15 23:40:23;;;;;;;6.40;3.90;;;;;;;7.22;80.20;98710.27;462866;1190;97694;-41
2021/10/15 23:50:27;;;;;;;7.40;2.50;;;;;;;7.11;80.22;98710.99;462802;1189;110763;-41
